createdAt,value
2022-12-13T00:00:37.859Z,27.43
2022-12-13T00:03:04.516Z,25.75
2022-12-13T00:05:31.181Z,27.50
2022-12-13T00:07:57.916Z,24.02
2022-12-13T00:10:25.694Z,23.30
2022-12-13T00:12:53.708Z,25.47
2022-12-13T00:15:20.319Z,21.92
2022-12-13T00:17:46.860Z,25.80
2022-12-13T00:20:13.496Z,26.48
2022-12-13T00:22:40.099Z,25.88
2022-12-13T00:25:07.233Z,28.30
2022-12-13T00:27:33.886Z,23.60
2022-12-13T00:30:01.843Z,23.13
2022-12-13T00:32:28.461Z,25.15
2022-12-13T00:34:55.186Z,20.08
2022-12-13T00:37:21.909Z,21.57
2022-12-13T00:39:48.496Z,24.27
2022-12-13T00:42:15.067Z,22.42
2022-12-13T00:44:41.691Z,23.52
2022-12-13T00:47:09.682Z,22.42
2022-12-13T00:49:36.482Z,22.83
2022-12-13T00:52:03.233Z,22.00
2022-12-13T00:54:29.819Z,23.40
2022-12-13T00:56:56.749Z,22.90
2022-12-13T00:59:23.501Z,24.10
2022-12-13T01:01:50.157Z,17.67
2022-12-13T01:04:18.170Z,20.80
2022-12-13T01:06:46.726Z,22.58
2022-12-13T01:09:17.525Z,24.38
2022-12-13T01:11:45.096Z,22.23
2022-12-13T01:14:11.844Z,23.60
2022-12-13T01:16:38.488Z,23.08
2022-12-13T01:19:05.233Z,25.08
2022-12-13T01:21:33.228Z,21.10
2022-12-13T01:24:03.037Z,21.92
2022-12-13T01:26:30.057Z,19.80
2022-12-13T01:28:56.704Z,25.02
2022-12-13T01:31:23.762Z,27.10
2022-12-13T01:33:50.446Z,23.40
2022-12-13T01:36:19.706Z,20.83
2022-12-13T01:38:58.607Z,24.90
2022-12-13T01:41:27.786Z,18.15
2022-12-13T01:43:57.674Z,22.77
2022-12-13T01:46:24.350Z,20.63
2022-12-13T01:48:58.196Z,22.38
2022-12-13T01:51:30.662Z,21.57
2022-12-13T01:54:02.109Z,17.90
2022-12-13T01:56:35.604Z,20.92
2022-12-13T01:59:02.789Z,19.10
2022-12-13T02:01:30.085Z,16.40
2022-12-13T02:03:56.778Z,20.60
2022-12-13T02:06:30.121Z,19.20
2022-12-13T02:08:58.574Z,21.42
2022-12-13T02:11:26.441Z,23.80
2022-12-13T02:13:53.155Z,20.45
2022-12-13T02:16:28.577Z,21.57
2022-12-13T02:19:15.772Z,21.98
2022-12-13T02:21:52.242Z,21.92
2022-12-13T02:24:52.842Z,20.30
2022-12-13T02:28:00.494Z,24.63
2022-12-13T02:30:33.687Z,21.73
2022-12-13T02:33:22.518Z,22.05
2022-12-13T02:35:57.177Z,22.45
2022-12-13T02:38:29.426Z,25.63
2022-12-13T02:41:00.908Z,26.10
2022-12-13T02:43:33.690Z,21.30
2022-12-13T02:46:03.422Z,24.50
2022-12-13T02:48:34.291Z,20.95
2022-12-13T02:51:05.287Z,27.48
2022-12-13T02:53:33.733Z,30.77
2022-12-13T02:56:00.651Z,29.33
2022-12-13T02:58:32.902Z,26.25
2022-12-13T03:01:28.415Z,33.03
2022-12-13T03:04:05.237Z,33.15
2022-12-13T03:06:44.090Z,26.95
2022-12-13T03:09:22.652Z,27.90
2022-12-13T03:12:23.753Z,32.15
2022-12-13T03:14:55.884Z,28.38
2022-12-13T03:17:26.227Z,25.88
2022-12-13T03:19:54.133Z,24.80
2022-12-13T03:22:20.768Z,27.93
2022-12-13T03:24:47.377Z,33.03
2022-12-13T03:27:14.226Z,27.63
2022-12-13T03:29:40.905Z,33.75
2022-12-13T03:32:07.595Z,29.00
2022-12-13T03:34:44.016Z,23.80
2022-12-13T03:37:11.635Z,28.17
2022-12-13T03:39:38.233Z,28.98
2022-12-13T03:42:04.916Z,28.85
2022-12-13T03:44:31.852Z,32.22
2022-12-13T03:47:00.808Z,25.10
2022-12-13T03:49:27.691Z,27.55
2022-12-13T03:52:03.933Z,24.00
2022-12-13T03:54:30.476Z,27.60
2022-12-13T03:56:57.069Z,29.92
2022-12-13T03:59:23.628Z,21.30
2022-12-13T04:01:50.256Z,23.42
2022-12-13T04:04:17.149Z,29.20
2022-12-13T04:06:43.761Z,25.88
2022-12-13T04:09:11.748Z,22.50
2022-12-13T04:11:42.714Z,28.63
2022-12-13T04:14:10.634Z,24.02
2022-12-13T04:16:37.328Z,24.63
2022-12-13T04:19:04.003Z,26.40
2022-12-13T04:21:30.574Z,28.88
2022-12-13T04:23:57.207Z,24.40
2022-12-13T04:26:29.316Z,25.50
2022-12-13T04:28:56.018Z,23.45
2022-12-13T04:31:23.299Z,26.75
2022-12-13T04:33:51.370Z,27.08
2022-12-13T04:36:17.994Z,25.73
2022-12-13T04:39:00.648Z,26.25
2022-12-13T04:41:33.992Z,26.88
2022-12-13T04:44:02.069Z,21.83
2022-12-13T04:46:28.703Z,27.25
2022-12-13T04:48:55.254Z,27.47
2022-12-13T04:51:21.965Z,26.92
2022-12-13T04:53:48.580Z,26.02
2022-12-13T04:56:15.168Z,21.92
2022-12-13T04:58:43.198Z,24.23
2022-12-13T05:01:10.600Z,21.43
2022-12-13T05:03:39.095Z,25.05
2022-12-13T05:06:06.598Z,23.85
2022-12-13T05:08:53.150Z,32.65
2022-12-13T05:11:23.201Z,25.70
2022-12-13T05:13:51.228Z,23.73
2022-12-13T05:16:17.919Z,28.02
2022-12-13T05:18:51.446Z,23.40
2022-12-13T05:21:18.111Z,25.25
2022-12-13T05:23:44.864Z,24.40
2022-12-13T05:26:11.450Z,24.67
2022-12-13T05:28:38.062Z,24.67
2022-12-13T05:31:22.943Z,23.23
2022-12-13T05:33:50.895Z,29.15
2022-12-13T05:36:17.576Z,26.10
2022-12-13T05:38:44.209Z,30.63
2022-12-13T05:41:15.020Z,27.90
2022-12-13T05:43:43.357Z,25.90
2022-12-13T05:46:12.416Z,31.42
2022-12-13T05:48:40.881Z,22.92
2022-12-13T05:51:09.927Z,19.70
2022-12-13T05:53:38.643Z,23.50
2022-12-13T05:56:05.837Z,25.75
2022-12-13T05:58:35.654Z,22.83
2022-12-13T06:01:07.755Z,27.20
2022-12-13T06:03:36.514Z,28.07
2022-12-13T06:06:03.886Z,26.30
2022-12-13T06:08:30.892Z,26.83
2022-12-13T06:11:11.029Z,26.17
2022-12-13T06:13:42.914Z,31.63
2022-12-13T06:16:22.599Z,32.17
2022-12-13T06:18:59.002Z,26.38
2022-12-13T06:21:40.868Z,28.10
2022-12-13T06:24:10.672Z,32.42
2022-12-13T06:26:37.377Z,24.23
2022-12-13T06:29:03.989Z,29.50
2022-12-13T06:31:30.556Z,26.08
2022-12-13T06:34:01.406Z,25.58
2022-12-13T06:36:41.735Z,27.27
2022-12-13T06:39:08.512Z,25.88
2022-12-13T06:41:35.105Z,29.17
2022-12-13T06:44:02.006Z,31.23
2022-12-13T06:46:28.684Z,26.45
2022-12-13T06:48:55.347Z,25.95
2022-12-13T06:51:23.316Z,25.30
2022-12-13T06:54:00.908Z,26.20
2022-12-13T06:56:28.122Z,28.33
2022-12-13T06:59:02.010Z,24.67
2022-12-13T07:01:36.725Z,25.90
2022-12-13T07:04:04.367Z,23.23
2022-12-13T07:06:32.316Z,28.07
2022-12-13T07:08:58.934Z,22.05
2022-12-13T07:11:27.250Z,25.52
2022-12-13T07:13:54.331Z,28.33
2022-12-13T07:16:22.378Z,28.85
2022-12-13T07:18:54.180Z,24.23
2022-12-13T07:21:28.850Z,24.88
2022-12-13T07:24:00.237Z,28.50
2022-12-13T07:26:26.978Z,23.88
2022-12-13T07:28:55.622Z,25.05
2022-12-13T07:31:23.379Z,27.27
2022-12-13T07:33:50.317Z,27.27
2022-12-13T07:36:19.206Z,22.95
2022-12-13T07:38:51.125Z,26.45
2022-12-13T07:41:23.020Z,28.02
2022-12-13T07:43:55.103Z,25.77
2022-12-13T07:46:33.032Z,26.42
2022-12-13T07:49:01.736Z,22.45
2022-12-13T07:51:28.600Z,27.42
2022-12-13T07:53:59.068Z,27.55
2022-12-13T07:56:27.021Z,23.77
2022-12-13T07:58:57.288Z,27.75
2022-12-13T08:01:23.905Z,27.95
2022-12-13T08:03:52.834Z,22.38
2022-12-13T08:06:19.487Z,23.55
2022-12-13T08:08:46.084Z,22.07
2022-12-13T08:11:17.309Z,24.23
2022-12-13T08:13:45.291Z,27.75
2022-12-13T08:16:27.224Z,26.55
2022-12-13T08:19:01.049Z,25.25
2022-12-13T08:21:53.397Z,24.80
2022-12-13T08:24:19.573Z,28.02
2022-12-13T08:26:48.639Z,25.35
2022-12-13T08:29:22.331Z,25.60
2022-12-13T08:32:01.384Z,27.10
2022-12-13T08:34:28.330Z,22.00
2022-12-13T08:37:01.572Z,21.00
2022-12-13T08:39:29.909Z,27.50
2022-12-13T08:41:56.442Z,19.17
2022-12-13T08:44:28.160Z,24.45
2022-12-13T08:46:54.803Z,26.03
2022-12-13T08:49:22.224Z,23.83
2022-12-13T08:51:48.825Z,30.90
2022-12-13T08:54:15.586Z,26.58
2022-12-13T08:57:02.267Z,24.67
2022-12-13T08:59:30.203Z,24.00
2022-12-13T09:02:03.019Z,24.83
2022-12-13T09:04:32.333Z,21.75
2022-12-13T09:07:01.795Z,24.50
2022-12-13T09:09:29.153Z,27.55
2022-12-13T09:11:59.127Z,22.13
2022-12-13T09:14:33.808Z,27.88
2022-12-13T09:17:02.945Z,26.88
2022-12-13T09:19:37.025Z,29.90
2022-12-13T09:22:04.611Z,25.05
2022-12-13T09:24:36.484Z,20.27
2022-12-13T09:27:03.972Z,26.10
2022-12-13T09:29:36.213Z,21.77
2022-12-13T09:32:04.824Z,22.27
2022-12-13T09:34:31.889Z,21.98
2022-12-13T09:37:01.112Z,21.87
2022-12-13T09:39:28.638Z,18.75
2022-12-13T09:42:01.431Z,20.20
2022-12-13T09:44:42.497Z,23.20
2022-12-13T09:47:23.563Z,21.25
2022-12-13T09:49:52.124Z,26.07
2022-12-13T09:52:25.073Z,22.13
2022-12-13T09:54:54.625Z,23.52
2022-12-13T09:57:32.021Z,24.50
2022-12-13T10:00:02.054Z,21.05
2022-12-13T10:02:33.600Z,21.07
2022-12-13T10:05:22.247Z,26.33
2022-12-13T10:07:52.620Z,25.52
2022-12-13T10:10:19.300Z,26.10
2022-12-13T10:12:51.457Z,21.48
2022-12-13T10:15:23.694Z,26.37
2022-12-13T10:17:55.285Z,21.52
2022-12-13T10:20:25.634Z,25.30
2022-12-13T10:23:14.964Z,21.15
2022-12-13T10:25:46.930Z,20.73
2022-12-13T10:28:19.412Z,25.07
2022-12-13T10:30:46.454Z,22.42
2022-12-13T10:33:24.706Z,21.95
2022-12-13T10:36:11.334Z,20.33
2022-12-13T10:38:40.625Z,22.88
2022-12-13T10:41:30.402Z,24.43
2022-12-13T10:44:09.480Z,23.50
2022-12-13T10:46:38.737Z,22.50
2022-12-13T10:49:16.895Z,22.35
2022-12-13T10:51:47.091Z,20.25
2022-12-13T10:54:17.706Z,23.30
2022-12-13T10:56:48.025Z,20.20
2022-12-13T10:59:26.638Z,21.67
2022-12-13T11:01:59.196Z,25.60
2022-12-13T11:04:30.178Z,23.65
2022-12-13T11:06:58.554Z,19.47
2022-12-13T11:09:27.764Z,28.50
2022-12-13T11:11:58.414Z,24.27
2022-12-13T11:14:32.293Z,23.73
2022-12-13T11:17:06.574Z,27.52
2022-12-13T11:19:39.229Z,20.03
2022-12-13T11:22:07.772Z,23.63
2022-12-13T11:24:39.820Z,22.05
2022-12-13T11:27:21.143Z,23.63
2022-12-13T11:30:10.308Z,26.60
2022-12-13T11:33:04.507Z,22.83
2022-12-13T11:35:42.874Z,25.63
2022-12-13T11:38:23.486Z,22.55
2022-12-13T11:40:56.555Z,21.05
2022-12-13T11:43:35.208Z,23.02
2022-12-13T11:46:13.560Z,29.83
2022-12-13T11:48:48.701Z,18.63
2022-12-13T11:51:27.894Z,21.88
2022-12-13T11:53:59.513Z,23.27
2022-12-13T11:56:34.175Z,18.80
2022-12-13T11:59:23.931Z,20.93
2022-12-13T12:02:04.835Z,18.17
2022-12-13T12:04:37.854Z,21.70
2022-12-13T12:07:31.386Z,21.77
2022-12-13T12:10:05.029Z,20.45
2022-12-13T12:12:33.674Z,22.53
2022-12-13T12:15:05.893Z,17.65
2022-12-13T12:17:42.722Z,20.25
2022-12-13T12:20:13.208Z,19.00
2022-12-13T12:22:48.405Z,18.20
2022-12-13T12:25:30.903Z,17.10
2022-12-13T12:28:05.681Z,17.98
2022-12-13T12:30:44.079Z,19.00
2022-12-13T12:33:26.053Z,19.23
2022-12-13T12:36:07.147Z,17.13
2022-12-13T12:39:15.904Z,17.40
2022-12-13T12:41:54.537Z,14.07
2022-12-13T12:44:37.634Z,15.63
2022-12-13T12:50:33.499Z,20.13
2022-12-13T12:53:08.919Z,15.87
2022-12-13T12:55:49.790Z,18.40
2022-12-13T12:58:26.896Z,17.92
2022-12-13T13:01:06.177Z,19.15
2022-12-13T13:03:36.643Z,17.92
2022-12-13T13:06:09.864Z,19.13
2022-12-13T13:08:43.189Z,18.20
2022-12-13T13:11:24.860Z,20.73
2022-12-13T13:14:04.998Z,18.65
2022-12-13T13:16:34.682Z,15.85
2022-12-13T13:19:01.803Z,19.87
2022-12-13T13:21:47.405Z,14.38
2022-12-13T13:24:21.263Z,17.73
2022-12-13T13:26:52.243Z,22.85
2022-12-13T13:29:43.226Z,16.65
2022-12-13T13:32:32.872Z,21.93
2022-12-13T13:35:51.098Z,15.18
2022-12-13T13:38:51.518Z,17.95
2022-12-13T13:41:58.608Z,14.73
2022-12-13T13:44:34.131Z,18.42
2022-12-13T13:47:14.751Z,18.47
2022-12-13T13:49:50.116Z,19.02
2022-12-13T13:52:25.594Z,15.60
2022-12-13T13:55:19.967Z,18.70
2022-12-13T13:58:21.644Z,16.13
2022-12-13T14:01:24.187Z,17.90
2022-12-13T14:04:25.069Z,14.70
2022-12-13T14:07:38.954Z,16.75
2022-12-13T14:10:40.385Z,19.65
2022-12-13T14:13:55.316Z,19.80
2022-12-13T14:17:25.064Z,20.37
2022-12-13T14:20:16.189Z,21.95
2022-12-13T14:22:46.354Z,21.05
2022-12-13T14:25:28.071Z,19.63
2022-12-13T14:28:00.016Z,19.35
2022-12-13T14:30:28.287Z,21.77
2022-12-13T14:32:57.956Z,19.52
2022-12-13T14:35:27.274Z,17.73
2022-12-13T14:37:59.652Z,20.65
2022-12-13T14:40:29.864Z,18.38
2022-12-13T14:42:57.020Z,19.37
2022-12-13T14:45:25.508Z,21.27
2022-12-13T14:47:53.274Z,21.20
2022-12-13T14:50:22.087Z,22.92
2022-12-13T14:52:49.224Z,20.95
2022-12-13T14:55:24.330Z,22.53
2022-12-13T14:57:52.876Z,23.05
2022-12-13T15:00:26.414Z,19.67
2022-12-13T15:03:00.117Z,22.83
2022-12-13T15:05:31.854Z,21.73
2022-12-13T15:07:59.445Z,22.77
2022-12-13T15:10:39.369Z,21.77
2022-12-13T15:13:07.663Z,21.48
2022-12-13T15:15:36.546Z,21.05
2022-12-13T15:18:21.900Z,23.95
2022-12-13T15:20:51.596Z,20.27
2022-12-13T15:23:24.001Z,22.83
2022-12-13T15:25:57.612Z,24.63
2022-12-13T15:28:26.131Z,19.83
2022-12-13T15:30:53.325Z,21.85
2022-12-13T15:33:26.303Z,19.70
2022-12-13T15:36:09.351Z,23.25
2022-12-13T15:38:37.568Z,21.15
2022-12-13T15:41:04.690Z,23.80
2022-12-13T15:43:35.543Z,21.15
2022-12-13T15:46:02.322Z,20.13
2022-12-13T15:48:32.093Z,24.48
2022-12-13T15:51:12.153Z,21.60
2022-12-13T15:53:40.542Z,24.50
2022-12-13T15:56:29.994Z,25.45
2022-12-13T15:58:56.668Z,23.93
2022-12-13T16:01:26.844Z,24.80
2022-12-13T16:03:53.736Z,27.88
2022-12-13T16:06:22.778Z,23.80
2022-12-13T16:08:51.968Z,28.08
2022-12-13T16:11:27.316Z,27.50
2022-12-13T16:13:58.520Z,24.42
2022-12-13T16:16:28.212Z,29.35
2022-12-13T16:18:56.941Z,24.52
2022-12-13T16:21:25.844Z,26.60
2022-12-13T16:23:52.512Z,27.90
2022-12-13T16:26:23.788Z,21.95
2022-12-13T16:28:50.734Z,26.48
2022-12-13T16:31:19.749Z,26.75
2022-12-13T16:33:46.385Z,26.58
2022-12-13T16:36:13.052Z,30.23
2022-12-13T16:38:41.126Z,29.90
2022-12-13T16:41:09.365Z,29.45
2022-12-13T16:43:39.609Z,28.67
2022-12-13T16:47:17.115Z,31.50
2022-12-13T16:48:54.637Z,31.80
2022-12-13T16:51:21.904Z,33.53
2022-12-13T16:53:49.868Z,35.45
2022-12-13T16:56:16.562Z,35.58
2022-12-13T16:58:49.425Z,35.42
2022-12-13T17:01:21.541Z,30.90
2022-12-13T17:03:48.410Z,27.05
2022-12-13T17:06:19.352Z,27.55
2022-12-13T17:08:45.933Z,27.40
2022-12-13T17:11:18.105Z,51.30
2022-12-13T17:13:45.343Z,35.53
2022-12-13T17:16:12.076Z,26.80
2022-12-13T17:18:39.898Z,27.70
2022-12-13T17:21:07.032Z,23.58
2022-12-13T17:23:34.253Z,22.75
2022-12-13T17:26:04.710Z,24.00
2022-12-13T17:28:32.825Z,20.45
2022-12-13T17:31:07.196Z,17.80
2022-12-13T17:33:35.763Z,18.63
2022-12-13T17:36:02.761Z,16.20
2022-12-13T17:38:29.512Z,18.00
2022-12-13T17:40:56.431Z,20.55
2022-12-13T17:43:33.465Z,17.95
2022-12-13T17:46:04.322Z,19.00
2022-12-13T17:48:39.279Z,19.00
2022-12-13T17:51:07.501Z,20.57
2022-12-13T17:53:34.121Z,20.45
2022-12-13T17:56:02.822Z,18.88
2022-12-13T17:58:30.429Z,20.20
2022-12-13T18:00:57.028Z,19.15
2022-12-13T18:03:25.652Z,22.47
2022-12-13T18:05:55.679Z,24.90
2022-12-13T18:08:22.299Z,20.75
2022-12-13T18:11:08.582Z,20.33
2022-12-13T18:13:39.662Z,22.27
2022-12-13T18:16:07.809Z,24.20
2022-12-13T18:18:36.045Z,26.85
2022-12-13T18:21:03.578Z,26.10
2022-12-13T18:23:30.336Z,27.05
2022-12-13T18:25:59.171Z,26.30
2022-12-13T18:28:25.871Z,30.33
2022-12-13T18:30:52.603Z,29.02
2022-12-13T18:33:20.694Z,25.05
2022-12-13T18:35:52.209Z,25.25
2022-12-13T18:38:18.794Z,36.97
2022-12-13T18:40:45.516Z,28.47
2022-12-13T18:43:12.176Z,26.95
2022-12-13T18:45:38.868Z,30.70
2022-12-13T18:48:06.487Z,28.77
2022-12-13T18:50:33.447Z,32.47
2022-12-13T18:53:01.677Z,30.70
2022-12-13T18:55:28.447Z,27.92
2022-12-13T18:57:55.112Z,29.92
2022-12-13T19:00:21.946Z,31.45
2022-12-13T19:02:52.948Z,36.30
2022-12-13T19:05:19.658Z,31.57
2022-12-13T19:07:46.308Z,30.13
2022-12-13T19:10:14.669Z,35.35
2022-12-13T19:12:41.252Z,28.88
2022-12-13T19:15:08.486Z,26.58
2022-12-13T19:17:35.104Z,26.07
2022-12-13T19:20:01.791Z,29.52
2022-12-13T19:22:29.277Z,32.22
2022-12-13T19:24:55.873Z,26.58
2022-12-13T19:27:23.900Z,29.52
2022-12-13T19:29:50.573Z,28.57
2022-12-13T19:32:17.209Z,30.83
2022-12-13T19:34:43.873Z,30.67
2022-12-13T19:37:13.704Z,25.75
2022-12-13T19:39:40.321Z,23.13
2022-12-13T19:42:06.981Z,23.47
2022-12-13T19:44:35.009Z,26.73
2022-12-13T19:47:01.649Z,26.20
2022-12-13T19:49:28.246Z,26.23
2022-12-13T19:51:54.813Z,27.25
2022-12-13T19:54:21.467Z,23.70
2022-12-13T19:56:48.271Z,23.73
2022-12-13T19:59:14.908Z,23.38
2022-12-13T20:01:44.098Z,26.77
2022-12-13T20:04:10.773Z,23.38
2022-12-13T20:06:37.476Z,22.00
2022-12-13T20:09:04.108Z,23.75
2022-12-13T20:11:30.764Z,25.17
2022-12-13T20:13:57.390Z,22.92
2022-12-13T20:16:25.764Z,24.65
2022-12-13T20:18:58.158Z,23.67
2022-12-13T20:21:25.317Z,21.08
2022-12-13T20:23:51.969Z,23.67
2022-12-13T20:26:21.440Z,25.77
2022-12-13T20:28:48.738Z,24.02
2022-12-13T20:31:17.654Z,26.03
2022-12-13T20:33:44.342Z,26.85
2022-12-13T20:36:24.249Z,27.98
2022-12-13T20:38:52.347Z,29.48
2022-12-13T20:41:18.977Z,26.08
2022-12-13T20:43:48.331Z,31.07
2022-12-13T20:46:15.406Z,28.30
2022-12-13T20:48:43.490Z,31.67
2022-12-13T20:51:13.821Z,25.92
2022-12-13T20:53:41.882Z,26.23
2022-12-13T20:56:10.797Z,28.30
2022-12-13T20:58:40.131Z,25.63
2022-12-13T21:01:07.602Z,23.70
2022-12-13T21:03:34.539Z,26.02
2022-12-13T21:06:01.209Z,30.27
2022-12-13T21:08:29.156Z,32.77
2022-12-13T21:10:59.389Z,31.73
2022-12-13T21:13:30.334Z,32.40
2022-12-13T21:16:05.876Z,32.03
2022-12-13T21:18:32.636Z,32.83
2022-12-13T21:20:59.258Z,26.67
2022-12-13T21:23:26.227Z,27.50
2022-12-13T21:25:54.455Z,31.85
2022-12-13T21:28:21.398Z,29.15
2022-12-13T21:30:47.960Z,28.08
2022-12-13T21:33:14.557Z,26.07
2022-12-13T21:35:41.147Z,27.08
2022-12-13T21:38:07.725Z,33.00
2022-12-13T21:40:34.790Z,26.42
2022-12-13T21:43:02.760Z,25.20
2022-12-13T21:45:29.403Z,21.90
2022-12-13T21:47:56.076Z,27.83
2022-12-13T21:50:24.791Z,27.35
2022-12-13T21:52:51.413Z,27.02
2022-12-13T21:58:08.303Z,26.90
2022-12-13T22:00:35.707Z,29.75
2022-12-13T22:03:02.752Z,28.17
2022-12-13T22:05:29.355Z,28.38
2022-12-13T22:07:56.027Z,25.95
2022-12-13T22:10:22.633Z,26.30
2022-12-13T22:12:49.287Z,26.77
2022-12-13T22:15:17.403Z,26.38
2022-12-13T22:17:43.998Z,31.63
2022-12-13T22:20:13.726Z,26.00
2022-12-13T22:22:41.547Z,24.67
2022-12-13T22:25:09.420Z,24.88
2022-12-13T22:27:36.194Z,23.02
2022-12-13T22:30:03.726Z,30.70
2022-12-13T22:32:32.400Z,31.42
2022-12-13T22:34:59.400Z,22.30
2022-12-13T22:37:26.660Z,31.40
2022-12-13T22:39:53.206Z,24.17
2022-12-13T22:42:19.967Z,27.73
2022-12-13T22:44:46.725Z,23.77
2022-12-13T22:47:13.439Z,19.53
2022-12-13T22:49:41.613Z,20.85
2022-12-13T22:52:08.636Z,18.50
2022-12-13T22:54:35.324Z,23.00
2022-12-13T22:57:01.883Z,18.05
2022-12-13T22:59:28.493Z,20.67
2022-12-13T23:02:01.348Z,19.90
2022-12-13T23:04:28.955Z,22.60
2022-12-13T23:06:56.943Z,16.52
2022-12-13T23:09:23.572Z,21.70
2022-12-13T23:11:50.145Z,20.87
2022-12-13T23:14:18.716Z,19.77
2022-12-13T23:16:45.473Z,21.33
2022-12-13T23:22:02.445Z,23.50
2022-12-13T23:24:29.062Z,17.40
2022-12-13T23:26:55.650Z,24.48
2022-12-13T23:29:22.271Z,22.33
2022-12-13T23:31:49.212Z,21.63
2022-12-13T23:34:16.009Z,21.88
2022-12-13T23:36:42.683Z,24.13
2022-12-13T23:39:11.355Z,20.17
2022-12-13T23:41:42.460Z,19.55
2022-12-13T23:44:11.079Z,20.00
2022-12-13T23:46:37.798Z,19.70
2022-12-13T23:49:06.898Z,23.43
2022-12-13T23:51:34.468Z,18.92
2022-12-13T23:54:01.289Z,14.73
2022-12-13T23:56:29.405Z,13.98
2022-12-13T23:58:56.320Z,14.82
